Time;durP1;ratioP1;P1;durP2;ratioP2;P2;SDS_P1;SDS_P2;PMS_P1;PMS_P2;Temp;Humidity;BMP_temperature;BMP_pressure;BME280_temperature;BME280_humidity;BME280_pressure;Samples;Min_cycle;Max_cycle;Signal;HPM_P1;HPM_P2
2023/02/02 00:01:34;;;;;;;12.48;3.50;;;;;;;;;;5039999;28;20759;-66
2023/02/02 00:04:03;;;;;;;12.18;4.22;;;;;;;;;;5048669;28;20219;-66
2023/02/02 00:06:31;;;;;;;11.98;4.35;;;;;;;;;;5054787;28;20568;-66
2023/02/02 00:09:00;;;;;;;9.25;2.97;;;;;;;;;;5056982;28;20213;-66
2023/02/02 00:11:29;;;;;;;16.85;3.63;;;;;;;;;;5055123;28;20204;-66
2023/02/02 00:13:59;;;;;;;6.70;3.35;;;;;;;;;;5054766;28;20205;-66
2023/02/02 00:16:38;;;;;;;16.23;3.30;;;;;;;;;;5053759;28;20303;-67
2023/02/02 00:19:07;;;;;;;10.70;3.42;;;;;;;;;;5035462;28;20205;-66
2023/02/02 00:21:42;;;;;;;15.80;4.07;;;;;;;;;;5035923;28;20783;-66
2023/02/02 00:27:31;;;;;;;14.63;3.30;;;;;;;;;;5035110;28;20201;-66
2023/02/02 00:30:03;;;;;;;16.08;4.25;;;;;;;;;;5035213;28;20197;-66
2023/02/02 00:32:34;;;;;;;10.93;3.05;;;;;;;;;;5043986;28;20644;-66
2023/02/02 00:35:03;;;;;;;17.67;3.92;;;;;;;;;;5033675;28;20216;-66
2023/02/02 00:37:31;;;;;;;12.20;4.07;;;;;;;;;;5033819;28;20225;-66
2023/02/02 00:39:59;;;;;;;16.33;4.18;;;;;;;;;;5034493;28;20710;-66
2023/02/02 00:42:28;;;;;;;9.85;3.83;;;;;;;;;;5033095;28;20262;-66
2023/02/02 00:47:43;;;;;;;15.63;4.53;;;;;;;;;;5050457;28;20193;-65
2023/02/02 00:53:34;;;;;;;17.20;3.58;;;;;;;;;;5033883;28;20204;-65
2023/02/02 00:59:23;;;;;;;9.48;3.80;;;;;;;;;;5046955;28;20194;-65
2023/02/02 01:01:58;;;;;;;15.10;4.18;;;;;;;;;;5042059;28;20253;-66
2023/02/02 01:04:27;;;;;;;15.70;3.78;;;;;;;;;;5034772;28;20208;-65
2023/02/02 01:06:55;;;;;;;13.77;3.90;;;;;;;;;;5037155;28;20200;-65
2023/02/02 01:09:23;;;;;;;10.00;3.28;;;;;;;;;;5040972;28;20205;-65
2023/02/02 01:11:56;;;;;;;7.15;3.90;;;;;;;;;;5052083;28;20200;-65
2023/02/02 01:14:31;;;;;;;12.18;4.07;;;;;;;;;;5054188;28;20234;-66
2023/02/02 01:17:04;;;;;;;10.27;4.13;;;;;;;;;;5050630;28;20234;-66
2023/02/02 01:23:07;;;;;;;10.43;3.83;;;;;;;;;;5032369;28;20224;-65
2023/02/02 01:25:37;;;;;;;23.70;5.60;;;;;;;;;;5033340;28;20232;-66
2023/02/02 01:28:05;;;;;;;12.90;3.90;;;;;;;;;;5040465;28;20201;-65
2023/02/02 01:30:33;;;;;;;12.93;4.07;;;;;;;;;;5044478;28;20246;-65
2023/02/02 01:33:05;;;;;;;15.07;3.55;;;;;;;;;;5046145;28;20209;-65
2023/02/02 01:35:51;;;;;;;13.38;4.13;;;;;;;;;;5040998;28;20204;-66
2023/02/02 01:38:21;;;;;;;15.18;4.22;;;;;;;;;;5053476;28;20208;-65
2023/02/02 01:40:54;;;;;;;14.00;4.20;;;;;;;;;;5053317;28;20220;-65
2023/02/02 01:43:33;;;;;;;11.98;4.43;;;;;;;;;;5042479;28;20573;-65
2023/02/02 01:46:01;;;;;;;12.25;4.30;;;;;;;;;;5045782;28;20197;-65
2023/02/02 01:48:31;;;;;;;20.08;3.92;;;;;;;;;;5052359;28;20211;-65
2023/02/02 01:51:00;;;;;;;13.00;4.07;;;;;;;;;;5040666;28;20201;-65
2023/02/02 01:53:30;;;;;;;16.98;4.03;;;;;;;;;;5051383;28;20549;-65
2023/02/02 01:56:02;;;;;;;9.05;2.97;;;;;;;;;;5035277;28;20201;-65
2023/02/02 01:58:32;;;;;;;22.63;4.18;;;;;;;;;;5035873;28;20716;-65
2023/02/02 02:01:07;;;;;;;12.40;3.65;;;;;;;;;;5039520;28;20185;-65
2023/02/02 02:03:36;;;;;;;24.83;4.90;;;;;;;;;;5051373;28;20211;-65
2023/02/02 02:06:11;;;;;;;16.52;3.92;;;;;;;;;;5048791;28;20208;-65
2023/02/02 02:08:48;;;;;;;13.40;3.72;;;;;;;;;;5033502;28;20190;-65
2023/02/02 02:11:16;;;;;;;13.95;4.97;;;;;;;;;;5031264;28;20567;-65
2023/02/02 02:16:37;;;;;;;23.58;6.82;;;;;;;;;;5034656;28;20282;-65
2023/02/02 02:19:20;;;;;;;12.20;4.13;;;;;;;;;;5041539;28;20686;-65
2023/02/02 02:28:21;;;;;;;11.32;3.83;;;;;;;;;;4976718;28;20206;-65
2023/02/02 02:31:03;;;;;;;25.15;4.93;;;;;;;;;;5016984;28;20214;-65
2023/02/02 02:33:45;;;;;;;15.00;5.00;;;;;;;;;;5051783;28;20632;-66
2023/02/02 02:36:17;;;;;;;10.27;3.42;;;;;;;;;;5052039;28;20242;-65
2023/02/02 02:38:51;;;;;;;17.55;4.97;;;;;;;;;;5051404;28;20651;-65
2023/02/02 02:41:23;;;;;;;16.17;4.97;;;;;;;;;;5037644;28;20205;-65
2023/02/02 02:43:53;;;;;;;15.43;5.15;;;;;;;;;;5034376;28;20209;-65
2023/02/02 02:46:22;;;;;;;10.93;3.90;;;;;;;;;;5032296;28;20196;-65
2023/02/02 02:48:52;;;;;;;14.32;4.00;;;;;;;;;;5048048;28;20230;-65
2023/02/02 02:51:44;;;;;;;13.18;3.30;;;;;;;;;;5034749;28;20653;-66
2023/02/02 02:54:16;;;;;;;11.90;3.20;;;;;;;;;;5051518;28;20201;-66
2023/02/02 02:56:56;;;;;;;12.85;3.90;;;;;;;;;;5042532;28;20189;-65
2023/02/02 02:59:33;;;;;;;12.60;3.95;;;;;;;;;;5031998;28;20195;-65
2023/02/02 03:02:08;;;;;;;15.15;4.25;;;;;;;;;;5032698;28;20280;-65
2023/02/02 03:04:40;;;;;;;13.05;3.40;;;;;;;;;;5049005;28;20644;-66
2023/02/02 03:07:12;;;;;;;23.35;4.43;;;;;;;;;;5051703;28;20195;-65
2023/02/02 03:09:42;;;;;;;14.60;3.90;;;;;;;;;;5053104;28;20238;-65
2023/02/02 03:12:11;;;;;;;7.50;3.50;;;;;;;;;;5047187;28;20193;-65
2023/02/02 03:14:43;;;;;;;9.85;4.47;;;;;;;;;;5047178;28;20211;-66
2023/02/02 03:17:16;;;;;;;17.48;5.35;;;;;;;;;;5053797;28;20240;-65
2023/02/02 03:19:47;;;;;;;13.63;3.75;;;;;;;;;;5054012;28;20248;-65
2023/02/02 03:22:15;;;;;;;11.15;4.50;;;;;;;;;;5051560;28;20216;-65
2023/02/02 03:24:43;;;;;;;18.80;6.55;;;;;;;;;;5041977;28;20201;-65
2023/02/02 03:27:12;;;;;;;39.65;23.63;;;;;;;;;;5036792;28;20213;-65
2023/02/02 03:29:40;;;;;;;118.90;61.13;;;;;;;;;;5055610;28;20196;-65
2023/02/02 03:32:08;;;;;;;51.90;22.77;;;;;;;;;;5054917;28;20215;-65
2023/02/02 03:34:36;;;;;;;34.60;19.15;;;;;;;;;;5055825;28;20196;-65
2023/02/02 03:37:06;;;;;;;34.28;18.00;;;;;;;;;;5054731;28;20212;-65
2023/02/02 03:39:34;;;;;;;58.05;29.35;;;;;;;;;;5052244;28;20212;-65
2023/02/02 03:42:02;;;;;;;92.20;49.78;;;;;;;;;;5035145;28;20205;-65
2023/02/02 03:44:30;;;;;;;76.20;40.65;;;;;;;;;;5036352;28;20202;-65
2023/02/02 03:46:58;;;;;;;65.88;31.88;;;;;;;;;;5035470;28;20694;-65
2023/02/02 03:49:27;;;;;;;43.70;23.48;;;;;;;;;;5035825;28;20209;-65
2023/02/02 03:51:55;;;;;;;36.42;19.35;;;;;;;;;;5035575;28;20609;-65
2023/02/02 03:54:24;;;;;;;45.80;27.58;;;;;;;;;;5035090;28;20205;-65
2023/02/02 03:56:53;;;;;;;19.85;9.63;;;;;;;;;;5042349;28;20670;-65
2023/02/02 03:59:21;;;;;;;43.78;22.60;;;;;;;;;;5054184;28;20221;-65
2023/02/02 04:01:53;;;;;;;20.25;8.32;;;;;;;;;;5053090;28;20260;-65
2023/02/02 04:04:27;;;;;;;14.55;5.47;;;;;;;;;;5058133;28;20195;-65
2023/02/02 04:06:58;;;;;;;15.23;4.97;;;;;;;;;;5052672;28;20674;-65
2023/02/02 04:09:29;;;;;;;26.42;13.05;;;;;;;;;;5053144;28;20196;-65
2023/02/02 04:11:57;;;;;;;14.65;5.43;;;;;;;;;;5054043;28;20652;-65
2023/02/02 04:14:29;;;;;;;26.42;5.35;;;;;;;;;;5045541;28;20211;-65
2023/02/02 04:17:16;;;;;;;21.90;6.45;;;;;;;;;;5049395;28;20228;-65
2023/02/02 04:19:44;;;;;;;21.63;5.70;;;;;;;;;;5034757;28;20205;-66
2023/02/02 04:22:13;;;;;;;10.77;4.93;;;;;;;;;;5043833;28;20613;-66
2023/02/02 04:24:43;;;;;;;15.20;6.18;;;;;;;;;;5053796;28;20205;-66
2023/02/02 04:27:12;;;;;;;14.48;5.57;;;;;;;;;;5059811;28;20188;-66
2023/02/02 04:29:47;;;;;;;18.27;5.80;;;;;;;;;;5057265;28;20204;-66
2023/02/02 04:32:18;;;;;;;9.90;4.03;;;;;;;;;;5057472;28;20196;-67
2023/02/02 04:34:50;;;;;;;18.75;7.65;;;;;;;;;;5056179;28;20218;-66
2023/02/02 04:37:18;;;;;;;17.95;4.88;;;;;;;;;;5053580;28;20549;-66
2023/02/02 04:39:49;;;;;;;16.23;6.28;;;;;;;;;;5039395;28;20201;-66
2023/02/02 04:42:17;;;;;;;12.65;5.20;;;;;;;;;;5035145;28;20198;-66
2023/02/02 04:44:45;;;;;;;15.05;4.15;;;;;;;;;;5043066;28;20503;-66
2023/02/02 04:47:13;;;;;;;12.82;4.55;;;;;;;;;;5037438;28;20216;-66
2023/02/02 04:49:41;;;;;;;20.95;4.63;;;;;;;;;;5038081;28;20238;-66
2023/02/02 04:52:11;;;;;;;15.82;4.60;;;;;;;;;;5054408;28;20208;-67
2023/02/02 04:54:39;;;;;;;14.82;4.68;;;;;;;;;;5054165;28;20201;-67
2023/02/02 04:57:13;;;;;;;14.70;4.75;;;;;;;;;;5054975;28;20618;-65
2023/02/02 05:05:52;;;;;;;17.20;3.55;;;;;;;;;;5046131;28;20200;-65
2023/02/02 05:08:29;;;;;;;20.75;4.15;;;;;;;;;;5054421;28;20545;-66
2023/02/02 05:10:57;;;;;;;20.58;3.10;;;;;;;;;;5053550;28;20211;-66
2023/02/02 05:13:26;;;;;;;15.20;3.75;;;;;;;;;;5053874;28;20219;-66
2023/02/02 05:16:07;;;;;;;5.65;3.42;;;;;;;;;;5035033;28;20209;-66
2023/02/02 05:18:35;;;;;;;13.02;3.75;;;;;;;;;;5053697;28;20212;-66
2023/02/02 05:21:03;;;;;;;16.65;5.13;;;;;;;;;;5043268;28;20201;-66
2023/02/02 05:23:32;;;;;;;14.75;3.70;;;;;;;;;;5046305;28;20703;-66
2023/02/02 05:26:00;;;;;;;20.80;3.83;;;;;;;;;;5033748;28;20238;-66
2023/02/02 05:28:29;;;;;;;26.17;5.10;;;;;;;;;;5040139;28;20193;-66
2023/02/02 05:30:57;;;;;;;16.83;4.30;;;;;;;;;;5046650;28;20197;-66
2023/02/02 05:33:25;;;;;;;18.27;4.63;;;;;;;;;;5033789;28;20205;-66
2023/02/02 05:35:56;;;;;;;13.98;3.70;;;;;;;;;;5033696;28;20194;-65
2023/02/02 05:38:24;;;;;;;14.23;3.95;;;;;;;;;;5046955;28;20216;-65
2023/02/02 05:40:52;;;;;;;16.40;4.05;;;;;;;;;;5051666;28;20659;-66
2023/02/02 05:43:21;;;;;;;14.23;4.28;;;;;;;;;;5033125;28;20205;-65
2023/02/02 05:45:52;;;;;;;11.13;4.60;;;;;;;;;;5034331;28;20215;-65
2023/02/02 05:48:49;;;;;;;14.32;4.72;;;;;;;;;;5046451;28;20216;-65
2023/02/02 05:51:40;;;;;;;15.57;4.53;;;;;;;;;;5035301;28;20235;-66
2023/02/02 05:54:11;;;;;;;9.60;3.10;;;;;;;;;;5041660;28;20285;-66
2023/02/02 05:56:39;;;;;;;8.18;3.30;;;;;;;;;;5049813;28;20208;-66
2023/02/02 05:59:07;;;;;;;28.73;4.35;;;;;;;;;;5038513;28;20229;-66
2023/02/02 06:01:37;;;;;;;14.63;4.35;;;;;;;;;;5043488;28;20204;-66
2023/02/02 06:04:05;;;;;;;13.38;4.15;;;;;;;;;;5047486;28;20212;-66
2023/02/02 06:06:42;;;;;;;16.40;3.80;;;;;;;;;;5052490;28;20215;-65
2023/02/02 06:09:26;;;;;;;;;;;;;;;;;;;;;
2023/02/02 06:12:20;;;;;;;15.05;8.15;;;;;;;;;;5052275;28;20272;-65
2023/02/02 06:14:52;;;;;;;11.85;7.47;;;;;;;;;;5040438;28;20273;-66
2023/02/02 06:17:21;;;;;;;32.92;14.02;;;;;;;;;;5052232;28;20236;-65
2023/02/02 06:19:58;;;;;;;22.25;9.52;;;;;;;;;;5054128;28;20224;-66
2023/02/02 06:22:39;;;;;;;25.77;5.47;;;;;;;;;;5044966;28;20280;-66
2023/02/02 06:25:08;;;;;;;21.38;4.55;;;;;;;;;;5041759;28;20209;-67
2023/02/02 06:27:36;;;;;;;13.70;3.22;;;;;;;;;;5041698;28;20204;-66
2023/02/02 06:30:04;;;;;;;20.17;3.78;;;;;;;;;;5044434;28;20193;-66
2023/02/02 06:32:35;;;;;;;12.00;4.10;;;;;;;;;;5049761;28;20616;-65
2023/02/02 06:35:04;;;;;;;15.68;4.57;;;;;;;;;;5052120;28;20204;-65
2023/02/02 06:37:33;;;;;;;11.25;4.90;;;;;;;;;;5051919;28;20203;-65
2023/02/02 06:40:01;;;;;;;11.35;4.43;;;;;;;;;;5038200;28;20219;-65
2023/02/02 06:42:29;;;;;;;27.67;5.85;;;;;;;;;;5051906;28;20204;-65
2023/02/02 06:44:57;;;;;;;21.45;4.95;;;;;;;;;;5038802;28;20545;-65
2023/02/02 06:47:25;;;;;;;13.80;4.65;;;;;;;;;;5050932;28;20205;-66
2023/02/02 06:49:54;;;;;;;10.25;3.78;;;;;;;;;;5051263;28;20197;-67
2023/02/02 06:52:22;;;;;;;13.10;5.03;;;;;;;;;;5042378;28;20205;-65
2023/02/02 06:54:50;;;;;;;17.90;5.60;;;;;;;;;;5045379;28;20765;-65
2023/02/02 06:57:18;;;;;;;12.50;4.03;;;;;;;;;;5051576;28;20583;-65
2023/02/02 06:59:46;;;;;;;14.00;5.03;;;;;;;;;;5055483;28;20224;-65
2023/02/02 07:02:14;;;;;;;16.67;4.78;;;;;;;;;;5055504;28;20204;-65
2023/02/02 07:04:43;;;;;;;11.15;4.78;;;;;;;;;;5049892;28;20208;-65
2023/02/02 07:07:12;;;;;;;10.60;3.58;;;;;;;;;;5055853;28;20208;-64
2023/02/02 07:09:40;;;;;;;11.73;4.38;;;;;;;;;;5053468;28;20192;-65
2023/02/02 07:12:09;;;;;;;13.73;4.28;;;;;;;;;;5042925;28;20580;-65
2023/02/02 07:14:37;;;;;;;16.08;4.53;;;;;;;;;;5047127;28;20211;-65
2023/02/02 07:17:05;;;;;;;13.52;4.18;;;;;;;;;;5041073;28;20290;-65
2023/02/02 07:19:34;;;;;;;8.82;4.07;;;;;;;;;;5053339;28;20228;-64
2023/02/02 07:22:02;;;;;;;14.45;4.90;;;;;;;;;;5045129;28;20718;-65
2023/02/02 07:24:32;;;;;;;18.58;5.03;;;;;;;;;;5042526;28;20311;-65
2023/02/02 07:27:00;;;;;;;14.60;4.63;;;;;;;;;;5041472;28;20208;-65
2023/02/02 07:29:28;;;;;;;8.80;4.10;;;;;;;;;;5054813;28;20200;-65
2023/02/02 07:31:56;;;;;;;19.00;6.38;;;;;;;;;;5054775;28;20216;-64
2023/02/02 07:34:25;;;;;;;12.23;4.43;;;;;;;;;;5037273;28;20205;-64
2023/02/02 07:36:53;;;;;;;11.40;4.07;;;;;;;;;;5034630;28;20211;-64
2023/02/02 07:39:21;;;;;;;15.75;3.80;;;;;;;;;;5034858;28;20285;-65
2023/02/02 07:41:51;;;;;;;23.70;7.70;;;;;;;;;;5044107;28;20577;-66
2023/02/02 07:44:31;;;;;;;15.32;4.63;;;;;;;;;;5041676;28;20185;-65
2023/02/02 07:47:00;;;;;;;9.85;4.32;;;;;;;;;;5051256;28;20745;-66
2023/02/02 07:49:28;;;;;;;10.32;4.65;;;;;;;;;;5054873;28;20201;-66
2023/02/02 07:51:56;;;;;;;21.05;5.28;;;;;;;;;;5053112;28;20244;-65
2023/02/02 07:54:24;;;;;;;14.90;5.32;;;;;;;;;;5052969;28;20204;-65
2023/02/02 07:56:54;;;;;;;25.02;5.97;;;;;;;;;;5054449;28;20204;-65
2023/02/02 07:59:22;;;;;;;11.20;4.25;;;;;;;;;;5049913;28;20213;-65
2023/02/02 08:01:51;;;;;;;14.00;4.47;;;;;;;;;;5036750;28;20205;-64
2023/02/02 08:04:19;;;;;;;20.83;4.93;;;;;;;;;;5051996;28;20204;-64
2023/02/02 08:06:47;;;;;;;18.05;5.50;;;;;;;;;;5050724;28;20595;-65
2023/02/02 08:09:15;;;;;;;12.02;3.85;;;;;;;;;;5052280;28;20201;-64
2023/02/02 08:11:44;;;;;;;20.05;4.85;;;;;;;;;;5054017;28;20208;-64
2023/02/02 08:14:14;;;;;;;20.85;4.70;;;;;;;;;;5053441;28;20584;-64
2023/02/02 08:16:42;;;;;;;26.52;6.43;;;;;;;;;;5052569;28;20241;-65
2023/02/02 08:19:10;;;;;;;15.93;4.45;;;;;;;;;;5049309;28;20204;-64
2023/02/02 08:21:38;;;;;;;21.77;4.90;;;;;;;;;;5053983;28;20694;-64
2023/02/02 08:24:07;;;;;;;12.60;3.88;;;;;;;;;;5053711;28;20285;-65
2023/02/02 08:26:38;;;;;;;7.03;3.75;;;;;;;;;;5054000;28;20676;-64
2023/02/02 08:29:07;;;;;;;30.40;13.77;;;;;;;;;;5053228;28;20208;-65
2023/02/02 08:31:40;;;;;;;13.13;4.03;;;;;;;;;;5044135;28;20278;-66
2023/02/02 08:34:09;;;;;;;8.98;3.40;;;;;;;;;;5044377;28;20189;-65
2023/02/02 08:36:37;;;;;;;13.73;3.97;;;;;;;;;;5041661;28;20216;-66
2023/02/02 08:39:06;;;;;;;18.67;4.72;;;;;;;;;;5050687;28;20196;-66
2023/02/02 08:41:35;;;;;;;15.65;5.93;;;;;;;;;;5052268;28;20223;-66
2023/02/02 08:44:05;;;;;;;19.98;3.90;;;;;;;;;;5052495;28;20200;-66
2023/02/02 08:46:34;;;;;;;13.88;4.70;;;;;;;;;;5044853;28;20185;-65
2023/02/02 08:49:03;;;;;;;10.90;4.20;;;;;;;;;;5051412;28;20208;-65
2023/02/02 08:51:32;;;;;;;14.20;4.18;;;;;;;;;;5046460;28;20649;-65
2023/02/02 08:54:02;;;;;;;11.00;3.40;;;;;;;;;;5039254;28;20200;-66
2023/02/02 08:56:31;;;;;;;13.05;4.38;;;;;;;;;;5037165;28;20202;-67
2023/02/02 08:58:59;;;;;;;19.58;4.70;;;;;;;;;;5032972;28;20563;-67
2023/02/02 09:01:28;;;;;;;11.93;3.80;;;;;;;;;;5042757;28;20631;-66
2023/02/02 09:03:56;;;;;;;11.75;3.97;;;;;;;;;;5030724;28;20207;-66
2023/02/02 09:06:28;;;;;;;13.50;3.92;;;;;;;;;;5034215;28;20616;-65
2023/02/02 09:08:56;;;;;;;19.10;4.80;;;;;;;;;;5047603;28;20200;-71
2023/02/02 09:11:25;;;;;;;12.38;4.20;;;;;;;;;;5046441;28;20204;-66
2023/02/02 09:13:54;;;;;;;9.77;4.45;;;;;;;;;;5047379;28;20197;-66
2023/02/02 09:16:23;;;;;;;19.13;5.18;;;;;;;;;;5050170;28;20229;-67
2023/02/02 09:18:51;;;;;;;31.35;12.75;;;;;;;;;;5036587;28;20199;-67
2023/02/02 09:21:20;;;;;;;36.15;17.98;;;;;;;;;;5044742;28;20212;-66
2023/02/02 09:23:52;;;;;;;14.35;6.60;;;;;;;;;;5045220;28;20703;-66
2023/02/02 09:26:22;;;;;;;12.65;5.65;;;;;;;;;;5042880;28;20185;-66
2023/02/02 09:28:51;;;;;;;17.13;4.68;;;;;;;;;;5037860;28;20227;-67
2023/02/02 09:31:19;;;;;;;13.23;4.22;;;;;;;;;;5051055;28;20238;-66
2023/02/02 09:33:48;;;;;;;14.02;3.63;;;;;;;;;;5051146;28;20266;-67
2023/02/02 09:36:19;;;;;;;11.65;3.33;;;;;;;;;;5052385;28;20273;-67
2023/02/02 09:38:47;;;;;;;8.77;4.15;;;;;;;;;;5052652;28;20200;-66
2023/02/02 09:41:36;;;;;;;15.68;4.85;;;;;;;;;;5052408;28;20220;-66
2023/02/02 09:44:13;;;;;;;10.90;4.15;;;;;;;;;;5048757;28;20205;-67
2023/02/02 09:46:46;;;;;;;18.23;4.13;;;;;;;;;;5047179;28;20191;-65
2023/02/02 09:49:16;;;;;;;9.88;3.63;;;;;;;;;;5051862;28;20200;-66
2023/02/02 09:51:46;;;;;;;12.43;4.82;;;;;;;;;;5051846;28;20196;-65
2023/02/02 09:54:18;;;;;;;10.55;3.20;;;;;;;;;;5050925;28;20570;-66
2023/02/02 09:56:53;;;;;;;16.38;4.40;;;;;;;;;;5051779;28;20205;-66
2023/02/02 09:59:24;;;;;;;10.93;3.40;;;;;;;;;;5052542;28;20200;-66
2023/02/02 10:01:55;;;;;;;11.70;3.85;;;;;;;;;;5051018;28;20205;-66
2023/02/02 10:04:25;;;;;;;9.88;3.05;;;;;;;;;;5048010;28;20194;-66
2023/02/02 10:06:55;;;;;;;14.02;3.95;;;;;;;;;;5051237;28;20204;-66
2023/02/02 10:09:28;;;;;;;9.73;3.08;;;;;;;;;;5052016;28;20214;-65
2023/02/02 10:11:59;;;;;;;8.02;3.25;;;;;;;;;;5051589;28;20191;-66
2023/02/02 10:14:32;;;;;;;7.90;3.30;;;;;;;;;;5051396;28;20191;-66
2023/02/02 10:17:03;;;;;;;6.25;2.67;;;;;;;;;;5051388;28;20659;-65
2023/02/02 10:19:32;;;;;;;14.88;3.00;;;;;;;;;;5051716;28;20200;-66
2023/02/02 10:22:04;;;;;;;11.10;3.40;;;;;;;;;;5041200;28;20684;-65
2023/02/02 10:24:34;;;;;;;13.32;2.90;;;;;;;;;;5032167;28;20190;-66
2023/02/02 10:27:05;;;;;;;9.80;3.13;;;;;;;;;;5031032;28;20564;-66
2023/02/02 10:29:41;;;;;;;8.57;2.63;;;;;;;;;;5030900;28;20196;-65
2023/02/02 10:32:21;;;;;;;6.03;2.30;;;;;;;;;;5031439;28;20633;-65
2023/02/02 10:34:57;;;;;;;9.68;3.13;;;;;;;;;;5031724;28;20201;-65
2023/02/02 10:37:30;;;;;;;6.70;2.47;;;;;;;;;;5031200;28;20653;-65
2023/02/02 10:40:05;;;;;;;5.50;2.40;;;;;;;;;;5050582;28;20208;-66
2023/02/02 10:42:38;;;;;;;13.30;3.22;;;;;;;;;;5051289;28;20181;-66
2023/02/02 10:45:11;;;;;;;6.72;2.70;;;;;;;;;;5051681;28;20201;-67
2023/02/02 10:47:39;;;;;;;9.38;3.00;;;;;;;;;;5051640;28;20193;-66
2023/02/02 10:50:17;;;;;;;10.55;2.85;;;;;;;;;;5049752;28;20196;-66
2023/02/02 10:52:47;;;;;;;7.57;3.75;;;;;;;;;;5051387;28;20263;-65
2023/02/02 10:55:20;;;;;;;9.05;4.15;;;;;;;;;;5050948;28;20204;-66
2023/02/02 10:57:52;;;;;;;8.52;3.25;;;;;;;;;;5035269;28;20661;-66
2023/02/02 11:00:23;;;;;;;9.10;2.58;;;;;;;;;;5031450;28;20192;-66
2023/02/02 11:02:52;;;;;;;6.43;2.22;;;;;;;;;;5037694;28;20204;-65
2023/02/02 11:08:17;;;;;;;9.48;2.55;;;;;;;;;;5051160;28;20211;-65
2023/02/02 11:10:46;;;;;;;9.70;3.17;;;;;;;;;;5050610;28;20181;-66
2023/02/02 11:13:21;;;;;;;6.40;3.40;;;;;;;;;;5044787;28;20652;-66
2023/02/02 11:15:51;;;;;;;11.10;3.97;;;;;;;;;;5029600;28;20185;-65
2023/02/02 11:18:28;;;;;;;8.90;2.38;;;;;;;;;;5045230;28;20738;-66
2023/02/02 11:20:56;;;;;;;5.20;2.63;;;;;;;;;;5045321;28;20208;-66
2023/02/02 11:23:27;;;;;;;8.73;2.65;;;;;;;;;;5046827;28;20593;-66
2023/02/02 11:26:00;;;;;;;8.13;2.35;;;;;;;;;;5047210;28;20291;-66
2023/02/02 11:28:29;;;;;;;12.45;3.30;;;;;;;;;;5048329;28;20193;-66
2023/02/02 11:30:59;;;;;;;6.75;2.60;;;;;;;;;;5048735;28;20204;-66
2023/02/02 11:33:28;;;;;;;9.98;2.80;;;;;;;;;;5035190;28;20205;-66
2023/02/02 11:35:58;;;;;;;10.30;2.63;;;;;;;;;;5041926;28;20255;-66
2023/02/02 11:38:27;;;;;;;12.00;2.80;;;;;;;;;;5047116;28;20196;-67
2023/02/02 11:40:56;;;;;;;9.32;2.50;;;;;;;;;;5049944;28;20212;-66
2023/02/02 11:43:27;;;;;;;9.00;2.80;;;;;;;;;;5053147;28;20212;-65
2023/02/02 11:45:56;;;;;;;6.25;2.70;;;;;;;;;;5035252;28;20192;-66
2023/02/02 11:48:28;;;;;;;6.32;2.22;;;;;;;;;;5037074;28;20211;-65
2023/02/02 11:50:57;;;;;;;9.07;2.25;;;;;;;;;;5045322;28;20258;-66
2023/02/02 11:53:27;;;;;;;7.03;2.33;;;;;;;;;;5034942;28;20683;-67
2023/02/02 11:55:56;;;;;;;5.72;2.45;;;;;;;;;;5042556;28;20205;-66
2023/02/02 11:58:27;;;;;;;5.28;2.50;;;;;;;;;;5042312;28;20262;-66
2023/02/02 12:00:57;;;;;;;10.93;3.28;;;;;;;;;;5052083;28;20207;-66
2023/02/02 12:03:28;;;;;;;9.13;2.33;;;;;;;;;;5046243;28;20204;-66
2023/02/02 12:05:57;;;;;;;5.13;2.22;;;;;;;;;;5040513;28;20612;-66
2023/02/02 12:08:25;;;;;;;8.35;3.25;;;;;;;;;;5043306;28;20220;-66
2023/02/02 12:10:57;;;;;;;9.38;5.63;;;;;;;;;;5041585;28;20207;-66
2023/02/02 12:13:32;;;;;;;11.73;4.35;;;;;;;;;;5045236;28;20196;-66
2023/02/02 12:16:07;;;;;;;6.72;3.15;;;;;;;;;;5042412;28;20278;-66
2023/02/02 12:18:41;;;;;;;6.38;2.60;;;;;;;;;;5044120;28;20188;-67
2023/02/02 12:21:13;;;;;;;8.68;3.08;;;;;;;;;;5039008;28;20196;-66
2023/02/02 12:23:48;;;;;;;7.68;2.95;;;;;;;;;;5043621;28;20232;-66
2023/02/02 12:26:19;;;;;;;5.82;2.40;;;;;;;;;;5041798;28;20204;-66
2023/02/02 12:28:57;;;;;;;9.20;3.03;;;;;;;;;;5043766;28;20194;-66
2023/02/02 12:31:31;;;;;;;8.02;2.78;;;;;;;;;;5043699;28;20224;-66
2023/02/02 12:34:04;;;;;;;5.60;2.75;;;;;;;;;;5040781;28;20192;-66
2023/02/02 12:36:37;;;;;;;12.02;3.10;;;;;;;;;;5043185;28;20189;-66
2023/02/02 12:39:10;;;;;;;6.82;3.17;;;;;;;;;;5038808;28;20208;-66
2023/02/02 12:41:45;;;;;;;11.70;2.80;;;;;;;;;;5039962;28;20232;-66
2023/02/02 12:44:17;;;;;;;6.18;3.00;;;;;;;;;;5044461;28;20189;-66
2023/02/02 12:46:50;;;;;;;6.25;2.95;;;;;;;;;;5047307;28;20200;-66
2023/02/02 12:49:27;;;;;;;10.93;3.08;;;;;;;;;;5041402;28;20586;-66
2023/02/02 12:52:06;;;;;;;9.00;3.20;;;;;;;;;;5041689;28;20212;-66
2023/02/02 12:54:41;;;;;;;6.97;2.05;;;;;;;;;;5035900;28;20199;-66
2023/02/02 12:57:15;;;;;;;11.10;2.92;;;;;;;;;;5049675;28;20224;-66
2023/02/02 13:00:01;;;;;;;7.30;3.42;;;;;;;;;;5046532;28;20188;-66
2023/02/02 13:02:34;;;;;;;13.40;3.60;;;;;;;;;;5042044;28;20307;-66
2023/02/02 13:05:09;;;;;;;9.65;3.00;;;;;;;;;;5051229;28;20211;-66
2023/02/02 13:07:40;;;;;;;12.88;3.15;;;;;;;;;;5052225;28;20204;-66
2023/02/02 13:10:13;;;;;;;7.22;2.85;;;;;;;;;;5052569;28;20192;-66
2023/02/02 13:12:43;;;;;;;7.18;2.42;;;;;;;;;;5047149;28;20562;-66
2023/02/02 13:15:13;;;;;;;9.50;3.53;;;;;;;;;;5040159;28;20211;-66
2023/02/02 13:17:44;;;;;;;10.13;3.65;;;;;;;;;;5040022;28;20224;-66
2023/02/02 13:20:18;;;;;;;10.05;3.20;;;;;;;;;;5041448;28;20191;-66
2023/02/02 13:22:48;;;;;;;6.93;3.58;;;;;;;;;;5041899;28;20667;-66
2023/02/02 13:25:19;;;;;;;9.90;2.95;;;;;;;;;;5039624;28;20193;-66
2023/02/02 13:27:48;;;;;;;6.68;2.83;;;;;;;;;;5043251;28;20599;-65
2023/02/02 13:30:23;;;;;;;6.22;2.92;;;;;;;;;;5041769;28;20198;-65
2023/02/02 13:32:53;;;;;;;8.20;2.25;;;;;;;;;;5033028;28;20234;-65
2023/02/02 13:35:24;;;;;;;13.00;2.90;;;;;;;;;;5039081;28;20555;-65
2023/02/02 13:37:54;;;;;;;4.80;2.30;;;;;;;;;;5049064;28;20197;-65
2023/02/02 13:40:26;;;;;;;4.72;2.38;;;;;;;;;;5050474;28;20208;-65
2023/02/02 13:42:56;;;;;;;5.53;2.80;;;;;;;;;;5051945;28;20208;-69
2023/02/02 13:45:39;;;;;;;7.88;2.67;;;;;;;;;;5041997;28;20201;-65
2023/02/02 13:48:14;;;;;;;8.13;2.72;;;;;;;;;;5047213;28;20200;-66
2023/02/02 13:50:48;;;;;;;7.47;2.47;;;;;;;;;;5039786;28;20208;-66
2023/02/02 13:53:26;;;;;;;11.05;3.00;;;;;;;;;;5039648;28;20181;-65
2023/02/02 13:55:58;;;;;;;7.80;2.28;;;;;;;;;;5042482;28;20192;-66
2023/02/02 13:58:39;;;;;;;9.18;2.72;;;;;;;;;;5052084;28;20270;-65
2023/02/02 14:01:09;;;;;;;9.85;2.90;;;;;;;;;;5051440;28;20188;-66
2023/02/02 14:03:38;;;;;;;6.30;2.20;;;;;;;;;;5051165;28;20231;-66
2023/02/02 14:06:10;;;;;;;9.98;2.35;;;;;;;;;;5051575;28;20227;-67
2023/02/02 14:08:44;;;;;;;7.68;2.67;;;;;;;;;;5046392;28;20193;-66
2023/02/02 14:11:16;;;;;;;9.77;2.55;;;;;;;;;;5039440;28;20194;-66
2023/02/02 14:16:50;;;;;;;11.55;2.85;;;;;;;;;;4990567;28;20230;-65
2023/02/02 14:19:39;;;;;;;5.78;2.42;;;;;;;;;;4985021;28;20198;-66
2023/02/02 14:22:36;;;;;;;9.98;2.67;;;;;;;;;;5021375;28;20236;-66
2023/02/02 14:25:28;;;;;;;6.07;2.17;;;;;;;;;;5022694;28;20225;-65
2023/02/02 14:27:57;;;;;;;6.38;2.08;;;;;;;;;;5043576;28;20656;-66
2023/02/02 14:30:27;;;;;;;6.78;2.45;;;;;;;;;;5039647;28;20205;-65
2023/02/02 14:33:19;;;;;;;5.55;3.20;;;;;;;;;;5030913;28;20193;-64
2023/02/02 14:35:56;;;;;;;6.30;3.05;;;;;;;;;;5032427;28;20246;-64
2023/02/02 14:38:28;;;;;;;10.05;2.90;;;;;;;;;;5043132;28;20642;-64
2023/02/02 14:41:05;;;;;;;7.30;4.43;;;;;;;;;;5050610;28;20265;-65
2023/02/02 14:43:44;;;;;;;48.88;26.35;;;;;;;;;;5040619;28;20216;-64
2023/02/02 14:46:33;;;;;;;61.10;33.60;;;;;;;;;;5045361;28;20216;-64
2023/02/02 14:49:12;;;;;;;8.55;3.15;;;;;;;;;;5049444;28;20602;-64
2023/02/02 14:51:47;;;;;;;6.90;2.67;;;;;;;;;;5032411;28;20247;-65
2023/02/02 14:54:20;;;;;;;6.65;2.75;;;;;;;;;;5050403;28;20628;-67
2023/02/02 14:56:50;;;;;;;7.28;2.38;;;;;;;;;;5051327;28;20191;-67
2023/02/02 14:59:20;;;;;;;6.97;2.45;;;;;;;;;;5051230;28;20205;-66
2023/02/02 15:01:55;;;;;;;4.78;2.10;;;;;;;;;;5046516;28;20681;-66
2023/02/02 15:04:27;;;;;;;8.23;2.40;;;;;;;;;;5049589;28;20212;-66
2023/02/02 15:06:55;;;;;;;4.35;2.70;;;;;;;;;;5052242;28;20197;-66
2023/02/02 15:09:27;;;;;;;9.80;2.70;;;;;;;;;;5052107;28;20235;-67
2023/02/02 15:12:15;;;;;;;5.75;2.10;;;;;;;;;;5051938;28;20185;-66
2023/02/02 15:14:46;;;;;;;6.13;2.00;;;;;;;;;;5051537;28;20185;-67
2023/02/02 15:17:20;;;;;;;11.57;2.95;;;;;;;;;;5054700;28;20597;-66
2023/02/02 15:19:50;;;;;;;7.20;2.75;;;;;;;;;;5055606;28;20662;-66
2023/02/02 15:22:25;;;;;;;6.78;2.60;;;;;;;;;;5055415;28;20224;-67
2023/02/02 15:24:54;;;;;;;5.72;2.15;;;;;;;;;;5054354;28;20215;-66
2023/02/02 15:27:23;;;;;;;4.35;2.10;;;;;;;;;;5055332;28;20595;-66
2023/02/02 15:29:55;;;;;;;7.03;1.95;;;;;;;;;;5054001;28;20211;-66
2023/02/02 15:32:27;;;;;;;23.25;12.15;;;;;;;;;;5049887;28;20219;-66
2023/02/02 15:34:55;;;;;;;12.95;3.47;;;;;;;;;;5055797;28;20196;-66
2023/02/02 15:37:26;;;;;;;5.18;3.30;;;;;;;;;;5054890;28;20200;-66